Time;durP1;ratioP1;P1;durP2;ratioP2;P2;SDS_P1;SDS_P2;PMS_P1;PMS_P2;Temp;Humidity;BMP_temperature;BMP_pressure;BME280_temperature;BME280_humidity;BME280_pressure;Samples;Min_cycle;Max_cycle;Signal;HPM_P1;HPM_P2
2023/12/28 00:01:22;;;;;;;1.30;1.20;;;15.90;61.80;;;;;;5094546;28;20218;-64
2023/12/28 00:03:48;;;;;;;1.30;1.10;;;15.90;61.80;;;;;;5094274;28;20210;-64
2023/12/28 00:06:14;;;;;;;1.45;1.35;;;15.90;61.80;;;;;;5094230;28;20708;-64
2023/12/28 00:08:40;;;;;;;1.48;1.10;;;15.90;61.80;;;;;;5094752;28;20306;-64
2023/12/28 00:11:05;;;;;;;1.33;1.20;;;15.90;61.90;;;;;;5093763;28;20269;-64
2023/12/28 00:13:31;;;;;;;1.63;1.50;;;15.90;61.90;;;;;;5094300;28;20253;-64
2023/12/28 00:15:56;;;;;;;0.95;0.95;;;15.90;61.90;;;;;;5094658;28;20202;-64
2023/12/28 00:18:22;;;;;;;1.42;1.25;;;15.80;61.80;;;;;;5093833;28;20197;-64
2023/12/28 00:20:47;;;;;;;1.20;1.10;;;15.90;61.90;;;;;;5094570;28;20247;-64
2023/12/28 00:23:13;;;;;;;1.50;1.13;;;15.90;61.90;;;;;;5093909;28;20638;-65
2023/12/28 00:25:38;;;;;;;0.98;0.90;;;15.90;62.00;;;;;;5094344;28;20636;-64
2023/12/28 00:28:07;;;;;;;1.05;0.90;;;15.90;62.00;;;;;;5094560;28;20182;-64
2023/12/28 00:30:33;;;;;;;2.05;1.25;;;15.80;61.90;;;;;;5093373;28;20628;-64
2023/12/28 00:32:58;;;;;;;1.15;1.05;;;15.80;61.90;;;;;;5094487;28;20199;-65
2023/12/28 00:35:24;;;;;;;2.10;0.95;;;15.80;61.90;;;;;;5093947;28;20527;-65
2023/12/28 00:37:49;;;;;;;1.05;1.05;;;15.80;62.00;;;;;;5093520;28;20174;-64
2023/12/28 00:40:15;;;;;;;2.97;1.30;;;15.80;62.00;;;;;;5093787;28;20201;-65
2023/12/28 00:42:41;;;;;;;1.33;1.23;;;15.80;62.00;;;;;;5094351;28;20174;-64
2023/12/28 00:45:07;;;;;;;1.00;1.00;;;15.80;62.00;;;;;;5093634;28;20197;-65
2023/12/28 00:47:33;;;;;;;1.90;1.20;;;15.80;62.10;;;;;;5093896;28;20177;-65
2023/12/28 00:49:59;;;;;;;2.72;1.45;;;15.80;62.00;;;;;;5094183;28;20597;-65
2023/12/28 00:52:24;;;;;;;1.90;1.10;;;15.80;62.00;;;;;;5093079;28;20643;-66
2023/12/28 00:54:50;;;;;;;1.13;1.02;;;15.70;62.00;;;;;;5093626;28;20367;-64
2023/12/28 00:57:15;;;;;;;1.45;1.35;;;15.70;62.00;;;;;;5093523;28;20703;-65
2023/12/28 00:59:41;;;;;;;1.42;1.27;;;15.80;62.10;;;;;;5093000;28;20276;-64
2023/12/28 01:02:07;;;;;;;1.50;1.40;;;15.80;62.10;;;;;;5093875;28;20185;-64
2023/12/28 01:04:33;;;;;;;1.58;1.20;;;15.70;62.10;;;;;;5093415;28;21055;-66
2023/12/28 01:07:01;;;;;;;1.88;1.35;;;15.80;62.10;;;;;;5093077;28;20203;-65
2023/12/28 01:09:27;;;;;;;1.27;1.13;;;15.70;62.10;;;;;;5093359;28;20235;-65
2023/12/28 01:11:52;;;;;;;1.40;1.30;;;15.70;62.10;;;;;;5093815;28;20574;-64
2023/12/28 01:14:18;;;;;;;1.85;1.15;;;15.70;62.20;;;;;;5092645;28;20193;-64
2023/12/28 01:16:44;;;;;;;1.30;1.20;;;15.70;62.20;;;;;;5093571;28;20169;-64
2023/12/28 01:19:09;;;;;;;1.30;1.20;;;15.70;62.20;;;;;;5093590;28;20181;-64
2023/12/28 01:21:35;;;;;;;1.42;1.30;;;15.70;62.20;;;;;;5092193;28;20763;-64
2023/12/28 01:24:00;;;;;;;1.50;1.40;;;15.70;62.20;;;;;;5093245;28;20174;-64
2023/12/28 01:26:26;;;;;;;2.97;1.20;;;15.70;62.20;;;;;;5091895;28;20226;-64
2023/12/28 01:28:51;;;;;;;1.98;1.25;;;15.70;62.30;;;;;;5093453;28;20252;-65
2023/12/28 01:31:17;;;;;;;1.30;0.95;;;15.70;62.40;;;;;;5092863;28;20178;-64
2023/12/28 01:33:42;;;;;;;1.33;1.23;;;15.70;62.30;;;;;;5092385;28;20169;-65
2023/12/28 01:36:20;;;;;;;1.52;1.30;;;15.70;62.30;;;;;;5093130;28;20184;-64
2023/12/28 01:38:46;;;;;;;1.58;1.40;;;15.70;62.40;;;;;;5093294;28;20189;-64
2023/12/28 01:41:12;;;;;;;1.77;1.20;;;15.70;62.40;;;;;;5092292;28;20213;-64
2023/12/28 01:43:38;;;;;;;1.30;1.20;;;15.70;62.40;;;;;;5092881;28;20174;-64
2023/12/28 01:46:05;;;;;;;1.27;1.17;;;15.60;62.40;;;;;;5093032;28;20181;-65
2023/12/28 01:48:30;;;;;;;1.55;1.38;;;15.70;62.50;;;;;;5074059;28;20170;-65
2023/12/28 01:50:56;;;;;;;1.30;1.20;;;15.60;62.40;;;;;;5092815;28;20185;-67
2023/12/28 01:53:21;;;;;;;2.17;1.23;;;15.60;62.40;;;;;;5092625;28;20229;-66
2023/12/28 01:55:47;;;;;;;1.40;1.30;;;15.60;62.40;;;;;;5092301;28;20173;-64
2023/12/28 01:58:12;;;;;;;2.08;1.40;;;15.60;62.40;;;;;;5092959;28;20173;-65
2023/12/28 02:00:38;;;;;;;1.75;1.20;;;15.60;62.40;;;;;;5092501;28;20264;-65
2023/12/28 02:03:05;;;;;;;1.58;1.48;;;15.60;62.40;;;;;;5092293;28;20184;-66
2023/12/28 02:05:31;;;;;;;1.20;1.10;;;15.60;62.40;;;;;;5057784;28;20743;-64
2023/12/28 02:07:56;;;;;;;1.55;1.35;;;15.60;62.50;;;;;;5092517;28;20205;-64
2023/12/28 02:10:22;;;;;;;1.95;1.45;;;15.60;62.50;;;;;;5073488;28;20174;-65
2023/12/28 02:12:49;;;;;;;1.75;1.23;;;15.60;62.50;;;;;;5092561;28;20185;-64
2023/12/28 02:15:15;;;;;;;1.48;1.17;;;15.60;62.50;;;;;;5092284;28;20230;-65
2023/12/28 02:17:50;;;;;;;1.60;1.20;;;15.60;62.50;;;;;;5091769;28;20182;-64
2023/12/28 02:20:16;;;;;;;1.52;1.35;;;15.60;62.50;;;;;;5091956;28;20193;-64
2023/12/28 02:22:41;;;;;;;2.28;1.50;;;15.60;62.50;;;;;;5091872;28;20243;-64
2023/12/28 02:25:13;;;;;;;1.33;1.20;;;15.50;62.50;;;;;;5074522;28;20238;-64
2023/12/28 02:27:39;;;;;;;5.72;1.42;;;15.60;62.50;;;;;;5092434;28;20184;-64
2023/12/28 02:30:06;;;;;;;1.92;1.30;;;15.60;62.60;;;;;;5073708;28;20174;-64
2023/12/28 02:32:38;;;;;;;2.17;1.48;;;15.60;62.50;;;;;;5073918;28;20174;-64
2023/12/28 02:35:13;;;;;;;1.58;1.20;;;15.60;62.60;;;;;;5074684;28;20173;-65
2023/12/28 02:37:39;;;;;;;1.90;1.40;;;15.50;62.50;;;;;;5090556;28;20666;-64
2023/12/28 02:40:05;;;;;;;1.25;1.15;;;15.50;62.50;;;;;;5092019;28;20197;-64
2023/12/28 02:42:31;;;;;;;1.45;1.35;;;15.50;62.50;;;;;;5073849;28;20173;-64
2023/12/28 02:44:56;;;;;;;1.40;1.30;;;15.50;62.50;;;;;;5073544;28;20230;-64
2023/12/28 02:47:22;;;;;;;1.40;1.30;;;15.50;62.60;;;;;;5091742;28;20577;-65
2023/12/28 02:49:47;;;;;;;1.60;1.50;;;15.50;62.60;;;;;;5092351;28;20249;-64
2023/12/28 02:52:13;;;;;;;2.15;1.20;;;15.50;62.60;;;;;;5091427;28;20578;-66
2023/12/28 02:54:38;;;;;;;2.03;1.38;;;15.50;62.60;;;;;;5091891;28;20301;-64
2023/12/28 02:57:04;;;;;;;1.90;1.25;;;15.50;62.60;;;;;;5092147;28;20181;-65
2023/12/28 02:59:30;;;;;;;1.02;1.02;;;15.50;62.70;;;;;;5091004;28;20210;-65
2023/12/28 03:01:55;;;;;;;2.15;1.40;;;15.50;62.70;;;;;;5091929;28;20300;-64
2023/12/28 03:04:21;;;;;;;1.60;1.50;;;15.50;62.60;;;;;;5091921;28;20253;-65
2023/12/28 03:06:46;;;;;;;1.40;1.30;;;15.50;62.60;;;;;;5091188;28;20785;-64
2023/12/28 03:09:12;;;;;;;2.05;1.20;;;15.40;62.60;;;;;;5092084;28;20173;-65
2023/12/28 03:11:37;;;;;;;1.45;1.23;;;15.50;62.80;;;;;;5091705;28;20166;-64
2023/12/28 03:14:03;;;;;;;2.17;1.30;;;15.50;62.70;;;;;;5091242;28;20296;-64
2023/12/28 03:16:28;;;;;;;1.55;1.40;;;15.50;62.70;;;;;;5091553;28;20173;-64
2023/12/28 03:18:54;;;;;;;1.38;1.27;;;15.50;62.70;;;;;;5091364;28;20181;-64
2023/12/28 03:21:19;;;;;;;1.30;1.20;;;15.50;62.70;;;;;;5091263;28;20209;-65
2023/12/28 03:23:45;;;;;;;1.30;1.20;;;15.40;62.70;;;;;;5091976;28;20174;-64
2023/12/28 03:26:10;;;;;;;2.08;1.50;;;15.40;62.80;;;;;;5091057;28;20223;-64
2023/12/28 03:28:36;;;;;;;1.83;1.38;;;15.40;62.70;;;;;;5091488;28;20219;-64
2023/12/28 03:31:03;;;;;;;1.50;1.20;;;15.40;62.70;;;;;;5090611;28;20261;-64
2023/12/28 03:33:28;;;;;;;1.17;1.10;;;15.40;62.70;;;;;;5089828;28;20190;-65
2023/12/28 03:35:54;;;;;;;1.52;1.42;;;15.40;62.70;;;;;;5091156;28;20277;-64
2023/12/28 03:38:19;;;;;;;1.42;1.17;;;15.40;62.70;;;;;;5090868;28;20518;-64
2023/12/28 03:40:47;;;;;;;2.20;1.27;;;15.40;62.80;;;;;;5090369;28;20208;-64
2023/12/28 03:43:13;;;;;;;3.92;1.35;;;15.40;62.80;;;;;;5090987;28;20209;-65
2023/12/28 03:45:38;;;;;;;1.77;1.65;;;15.40;62.80;;;;;;5090789;28;20201;-64
2023/12/28 03:48:04;;;;;;;1.38;1.27;;;15.40;62.80;;;;;;5091117;28;20208;-66
2023/12/28 03:50:30;;;;;;;1.35;1.20;;;15.40;62.80;;;;;;5094447;28;20277;-65
2023/12/28 03:52:55;;;;;;;1.70;1.20;;;15.40;62.90;;;;;;5094589;28;20272;-66
2023/12/28 03:55:21;;;;;;;1.45;1.10;;;15.40;62.80;;;;;;5093542;28;20186;-65
2023/12/28 03:57:47;;;;;;;1.25;1.10;;;15.40;62.80;;;;;;5094515;28;20253;-65
2023/12/28 04:00:14;;;;;;;2.05;1.10;;;15.40;62.80;;;;;;5094478;28;20229;-65
2023/12/28 04:02:40;;;;;;;1.27;1.17;;;15.40;62.90;;;;;;5093973;28;20178;-64
2023/12/28 04:05:07;;;;;;;1.80;1.33;;;15.40;62.80;;;;;;5094267;28;20219;-64
2023/12/28 04:07:32;;;;;;;5.22;1.92;;;15.40;62.90;;;;;;5094155;28;20178;-64
2023/12/28 04:09:58;;;;;;;1.50;1.40;;;15.40;62.90;;;;;;5093658;28;20702;-65
2023/12/28 04:12:24;;;;;;;2.60;1.48;;;15.30;62.80;;;;;;5094036;28;20178;-64
2023/12/28 04:14:49;;;;;;;2.83;1.60;;;15.30;62.80;;;;;;5094211;28;20542;-65
2023/12/28 04:17:15;;;;;;;2.80;1.40;;;15.40;62.90;;;;;;5093343;28;20256;-64
2023/12/28 04:19:40;;;;;;;1.30;1.20;;;15.40;62.90;;;;;;5094234;28;20170;-64
2023/12/28 04:22:06;;;;;;;2.05;1.40;;;15.30;62.80;;;;;;5093971;28;20178;-64
2023/12/28 04:24:31;;;;;;;1.55;1.45;;;15.30;62.80;;;;;;5092950;28;20546;-64
2023/12/28 04:26:57;;;;;;;1.27;1.10;;;15.40;62.90;;;;;;5093801;28;20196;-64
2023/12/28 04:29:22;;;;;;;1.63;1.30;;;15.30;62.80;;;;;;5092848;28;20166;-65
2023/12/28 04:31:48;;;;;;;1.58;1.33;;;15.40;62.90;;;;;;5094062;28;20268;-64
2023/12/28 04:34:13;;;;;;;1.73;1.30;;;15.30;62.90;;;;;;5093805;28;20256;-65
2023/12/28 04:36:43;;;;;;;1.83;1.20;;;15.30;62.80;;;;;;5093024;28;20269;-64
2023/12/28 04:39:08;;;;;;;1.77;1.23;;;15.30;62.90;;;;;;5093762;28;20252;-64
2023/12/28 04:41:34;;;;;;;1.60;1.50;;;15.30;62.90;;;;;;5093238;28;20687;-64
2023/12/28 04:43:59;;;;;;;3.92;1.70;;;15.30;62.90;;;;;;5092813;28;20170;-64
2023/12/28 04:46:25;;;;;;;1.52;1.25;;;15.30;62.90;;;;;;5093262;28;20250;-64
2023/12/28 04:48:50;;;;;;;1.80;1.30;;;15.30;62.90;;;;;;5093443;28;20214;-64
2023/12/28 04:51:16;;;;;;;2.15;1.35;;;15.30;63.00;;;;;;5092658;28;20264;-65
2023/12/28 04:53:41;;;;;;;3.13;1.60;;;15.30;62.90;;;;;;5093294;28;20308;-65
2023/12/28 04:56:07;;;;;;;1.40;1.30;;;15.30;62.90;;;;;;5093674;28;20170;-64
2023/12/28 04:58:33;;;;;;;1.27;1.17;;;15.30;62.90;;;;;;5092200;28;20346;-63
2023/12/28 05:00:58;;;;;;;1.50;1.40;;;15.30;62.90;;;;;;5092146;28;20703;-62
2023/12/28 05:03:24;;;;;;;3.13;1.52;;;15.30;63.70;;;;;;5092860;28;20209;-63
2023/12/28 05:05:49;;;;;;;2.20;1.52;;;15.30;62.90;;;;;;5092521;28;20280;-62
2023/12/28 05:08:15;;;;;;;2.70;1.27;;;15.30;62.90;;;;;;5092822;28;20205;-64
2023/12/28 05:10:40;;;;;;;2.75;1.30;;;15.30;62.90;;;;;;5093130;28;20196;-63
2023/12/28 05:13:06;;;;;;;2.45;1.40;;;15.30;62.90;;;;;;5092256;28;20177;-63
2023/12/28 05:15:31;;;;;;;2.22;1.48;;;15.30;62.90;;;;;;5092893;28;20250;-63
2023/12/28 05:17:57;;;;;;;1.52;1.20;;;15.30;62.90;;;;;;5093082;28;20623;-63
2023/12/28 05:20:22;;;;;;;2.05;1.60;;;15.30;62.90;;;;;;5091805;28;20220;-63
2023/12/28 05:22:48;;;;;;;2.70;1.40;;;15.30;62.90;;;;;;5092782;28;20557;-63
2023/12/28 05:25:14;;;;;;;2.72;1.42;;;15.30;62.90;;;;;;5092478;28;20592;-64
2023/12/28 05:27:40;;;;;;;1.42;1.30;;;15.30;62.90;;;;;;5092055;28;20173;-62
2023/12/28 05:30:06;;;;;;;2.42;1.40;;;15.30;63.00;;;;;;5092670;28;20170;-63
2023/12/28 05:32:31;;;;;;;2.00;1.48;;;15.30;62.90;;;;;;5092186;28;20174;-63
2023/12/28 05:34:57;;;;;;;2.15;1.27;;;15.30;63.00;;;;;;5092393;28;20166;-63
2023/12/28 05:37:22;;;;;;;2.60;1.20;;;15.30;63.00;;;;;;5092364;28;20174;-63
2023/12/28 05:39:48;;;;;;;1.98;1.38;;;15.20;62.80;;;;;;5091812;28;20179;-63
2023/12/28 05:42:13;;;;;;;1.67;1.23;;;15.20;62.80;;;;;;5092120;28;20251;-64
2023/12/28 05:44:39;;;;;;;3.08;1.20;;;15.20;62.80;;;;;;5092681;28;20211;-64
2023/12/28 05:47:04;;;;;;;2.83;1.58;;;15.30;62.90;;;;;;5091852;28;20201;-64
2023/12/28 05:49:30;;;;;;;2.20;1.48;;;15.20;63.60;;;;;;5092048;28;20262;-64
2023/12/28 05:51:56;;;;;;;2.80;1.40;;;15.30;62.80;;;;;;5092217;28;20181;-64
2023/12/28 05:54:21;;;;;;;2.63;1.30;;;15.30;62.70;;;;;;5090990;28;20236;-64
2023/12/28 05:56:47;;;;;;;2.70;1.45;;;15.30;62.60;;;;;;5091499;28;20264;-63
2023/12/28 05:59:12;;;;;;;2.25;1.20;;;15.30;62.50;;;;;;5092249;28;20534;-63
2023/12/28 06:01:43;;;;;;;2.80;1.50;;;15.30;62.50;;;;;;5091211;28;20213;-63
2023/12/28 06:04:08;;;;;;;2.35;1.60;;;15.40;62.50;;;;;;5092158;28;20181;-63
2023/12/28 06:06:34;;;;;;;2.42;1.40;;;15.30;62.40;;;;;;5091876;28;20182;-63
2023/12/28 06:08:59;;;;;;;3.58;1.52;;;15.30;62.40;;;;;;5091289;28;20180;-63
2023/12/28 06:11:25;;;;;;;2.75;1.58;;;15.30;62.40;;;;;;5091506;28;20181;-64
2023/12/28 06:13:50;;;;;;;1.42;1.08;;;15.30;62.40;;;;;;5091863;28;20685;-63
2023/12/28 06:16:16;;;;;;;2.53;1.40;;;15.30;62.40;;;;;;5090879;28;20264;-64
2023/12/28 06:18:44;;;;;;;2.38;1.10;;;15.30;62.40;;;;;;5092136;28;20256;-62
2023/12/28 06:21:10;;;;;;;1.90;1.40;;;15.30;62.50;;;;;;5091733;28;20683;-63
2023/12/28 06:23:38;;;;;;;3.20;1.40;;;15.30;62.50;;;;;;5090890;28;20261;-63
2023/12/28 06:26:06;;;;;;;4.53;1.45;;;15.30;62.60;;;;;;5091736;28;20201;-63
2023/12/28 06:28:31;;;;;;;2.78;1.33;;;15.30;62.60;;;;;;5091732;28;20260;-63
2023/12/28 06:31:00;;;;;;;2.00;1.58;;;15.30;62.60;;;;;;5091147;28;20261;-64
2023/12/28 06:33:29;;;;;;;3.60;1.67;;;15.30;62.60;;;;;;5091139;28;20173;-63
2023/12/28 06:35:55;;;;;;;4.05;1.50;;;15.30;62.60;;;;;;5091046;28;20189;-63
2023/12/28 06:38:20;;;;;;;2.78;1.35;;;15.30;62.60;;;;;;5091251;28;20539;-63
2023/12/28 06:40:46;;;;;;;2.80;1.70;;;15.30;62.60;;;;;;5091512;28;20248;-63
2023/12/28 06:43:11;;;;;;;1.90;1.30;;;15.30;62.60;;;;;;5091024;28;20170;-63
2023/12/28 06:45:37;;;;;;;2.35;1.40;;;15.20;62.50;;;;;;5091247;28;20166;-63
2023/12/28 06:48:03;;;;;;;2.78;1.55;;;15.20;62.50;;;;;;5091654;28;20170;-64
2023/12/28 06:50:28;;;;;;;3.42;1.67;;;15.30;62.60;;;;;;5090476;28;20235;-63
2023/12/28 06:52:54;;;;;;;3.35;1.50;;;15.30;62.60;;;;;;5091287;28;20585;-64
2023/12/28 06:55:19;;;;;;;2.97;1.50;;;15.40;62.60;;;;;;5091207;28;20189;-64
2023/12/28 06:57:45;;;;;;;4.75;1.60;;;15.50;62.40;;;;;;5090921;28;20170;-63
2023/12/28 07:00:11;;;;;;;2.60;1.50;;;15.60;62.20;;;;;;5091400;28;20705;-63
2023/12/28 07:02:36;;;;;;;1.90;1.30;;;15.70;62.00;;;;;;5091089;28;20628;-62
2023/12/28 07:05:03;;;;;;;3.78;1.63;;;15.90;61.70;;;;;;5090733;28;20291;-64
2023/12/28 07:07:29;;;;;;;2.85;1.48;;;16.00;61.40;;;;;;5091100;28;20189;-65
2023/12/28 07:09:54;;;;;;;3.97;1.70;;;16.20;61.20;;;;;;5091280;28;20173;-65
2023/12/28 07:12:20;;;;;;;3.25;1.38;;;16.30;60.80;;;;;;5089531;28;20182;-65
2023/12/28 07:14:46;;;;;;;2.85;1.63;;;16.40;60.60;;;;;;5091486;28;20185;-65
2023/12/28 07:17:12;;;;;;;3.95;1.30;;;16.60;60.40;;;;;;5091315;28;20671;-65
2023/12/28 07:19:37;;;;;;;2.45;1.55;;;16.70;60.00;;;;;;5090275;28;20504;-65
2023/12/28 07:22:03;;;;;;;2.58;1.20;;;16.80;59.80;;;;;;5091194;28;20522;-65
2023/12/28 07:24:28;;;;;;;2.72;1.52;;;16.90;59.60;;;;;;5093792;28;20651;-65
2023/12/28 07:26:54;;;;;;;2.47;1.38;;;17.00;59.60;;;;;;5094622;28;20180;-65
2023/12/28 07:29:19;;;;;;;2.90;1.30;;;17.00;59.50;;;;;;5094858;28;20196;-66
2023/12/28 07:31:45;;;;;;;2.38;1.42;;;17.10;59.20;;;;;;5095075;28;20182;-65
2023/12/28 07:34:10;;;;;;;1.60;1.48;;;17.20;59.10;;;;;;5094391;28;20174;-66
2023/12/28 07:36:36;;;;;;;2.33;1.25;;;17.20;59.00;;;;;;5093795;28;20286;-65
2023/12/28 07:39:01;;;;;;;3.17;1.60;;;17.20;58.90;;;;;;5094769;28;20684;-64
2023/12/28 07:41:27;;;;;;;1.73;1.25;;;17.30;58.90;;;;;;5093981;28;20206;-65
2023/12/28 07:43:53;;;;;;;3.55;1.55;;;17.20;58.90;;;;;;5094771;28;20533;-65
2023/12/28 07:46:18;;;;;;;2.95;1.45;;;17.20;58.90;;;;;;5093874;28;20286;-65
2023/12/28 07:48:44;;;;;;;5.00;1.42;;;17.20;58.90;;;;;;5094851;28;20196;-66
2023/12/28 07:51:09;;;;;;;2.80;1.20;;;17.20;59.10;;;;;;5094669;28;20651;-66
2023/12/28 07:53:35;;;;;;;3.65;1.35;;;17.20;59.10;;;;;;5075268;28;20719;-65
2023/12/28 07:56:00;;;;;;;3.38;1.55;;;17.20;59.10;;;;;;5094651;28;20185;-65
2023/12/28 07:58:26;;;;;;;1.80;0.90;;;17.20;59.10;;;;;;5094503;28;20170;-64
2023/12/28 08:00:52;;;;;;;2.97;1.23;;;17.30;59.00;;;;;;5093935;28;20296;-64
2023/12/28 08:03:17;;;;;;;2.22;1.20;;;17.30;59.00;;;;;;5094208;28;20194;-65
2023/12/28 08:05:46;;;;;;;1.80;1.15;;;17.30;59.00;;;;;;5094400;28;20241;-64
2023/12/28 08:08:11;;;;;;;3.30;1.40;;;17.30;58.90;;;;;;5093591;28;20194;-65
2023/12/28 08:10:37;;;;;;;3.05;1.30;;;17.40;58.90;;;;;;5094201;28;20200;-64
2023/12/28 08:13:03;;;;;;;3.25;1.30;;;17.30;59.00;;;;;;5094440;28;20252;-64
2023/12/28 08:15:28;;;;;;;3.78;1.38;;;17.40;58.90;;;;;;5093376;28;20320;-64
2023/12/28 08:17:54;;;;;;;2.58;1.20;;;17.40;58.80;;;;;;5094047;28;20700;-64
2023/12/28 08:20:19;;;;;;;3.50;1.40;;;17.40;58.80;;;;;;5093847;28;20280;-65
2023/12/28 08:22:45;;;;;;;2.92;1.50;;;17.40;58.90;;;;;;5093260;28;20636;-64
2023/12/28 08:25:10;;;;;;;3.30;1.60;;;17.40;58.80;;;;;;5094081;28;20193;-64
2023/12/28 08:27:36;;;;;;;1.77;1.10;;;17.40;58.90;;;;;;5093864;28;20173;-64
2023/12/28 08:30:02;;;;;;;2.10;1.20;;;17.40;58.80;;;;;;5093356;28;20211;-65
2023/12/28 08:32:27;;;;;;;3.72;1.65;;;17.40;58.80;;;;;;5093685;28;20228;-65
2023/12/28 08:34:53;;;;;;;4.03;1.83;;;17.40;58.80;;;;;;5093833;28;20185;-65
2023/12/28 08:37:18;;;;;;;3.72;1.30;;;17.40;58.80;;;;;;5092782;28;20641;-64
2023/12/28 08:39:44;;;;;;;4.43;1.45;;;17.40;58.80;;;;;;5093969;28;20169;-64
2023/12/28 08:42:10;;;;;;;1.75;1.13;;;17.50;58.80;;;;;;5093809;28;20209;-64
2023/12/28 08:44:36;;;;;;;4.20;1.90;;;17.40;58.80;;;;;;5092669;28;20174;-64
2023/12/28 08:47:02;;;;;;;2.65;1.63;;;17.40;58.90;;;;;;5093693;28;20182;-65
2023/12/28 08:49:29;;;;;;;3.72;1.42;;;17.40;58.80;;;;;;5092930;28;20177;-65
2023/12/28 08:51:57;;;;;;;2.38;1.42;;;17.40;58.90;;;;;;5093401;28;20181;-65
2023/12/28 08:54:23;;;;;;;2.58;1.60;;;17.40;58.80;;;;;;5093116;28;20229;-65
2023/12/28 08:56:49;;;;;;;2.63;1.52;;;17.40;59.50;;;;;;5092920;28;20957;-65
2023/12/28 08:59:14;;;;;;;2.50;1.20;;;17.50;58.80;;;;;;5093040;28;20641;-65
2023/12/28 09:01:40;;;;;;;4.00;1.25;;;17.40;58.80;;;;;;5093070;28;20308;-64
2023/12/28 09:04:05;;;;;;;3.05;1.33;;;17.40;58.90;;;;;;5092595;28;20174;-65
2023/12/28 09:06:31;;;;;;;2.85;1.60;;;17.30;59.00;;;;;;5092806;28;20170;-64
2023/12/28 09:08:57;;;;;;;3.40;1.65;;;17.20;59.00;;;;;;5093125;28;20646;-65
2023/12/28 09:11:23;;;;;;;2.95;1.60;;;17.10;59.10;;;;;;5092354;28;20304;-65
2023/12/28 09:13:48;;;;;;;5.28;2.13;;;17.10;59.30;;;;;;5093140;28;20677;-64
2023/12/28 09:16:14;;;;;;;3.70;1.50;;;17.00;59.50;;;;;;5092738;28;20173;-65
2023/12/28 09:18:40;;;;;;;3.85;1.67;;;17.00;59.60;;;;;;5092057;28;20166;-63
2023/12/28 09:21:06;;;;;;;2.53;1.40;;;17.00;59.70;;;;;;5092816;28;20300;-64
2023/12/28 09:23:32;;;;;;;3.63;1.40;;;16.90;59.70;;;;;;5092489;28;20174;-64
2023/12/28 09:25:58;;;;;;;3.33;1.23;;;16.90;59.80;;;;;;5092379;28;20697;-64
2023/12/28 09:28:24;;;;;;;3.80;1.85;;;16.90;59.80;;;;;;5092575;28;20177;-65
2023/12/28 09:30:49;;;;;;;20.20;2.00;;;16.90;59.80;;;;;;5092905;28;20178;-64
2023/12/28 09:33:16;;;;;;;3.67;1.60;;;16.90;59.80;;;;;;5091735;28;20170;-65
2023/12/28 09:35:41;;;;;;;2.67;1.20;;;17.00;59.80;;;;;;5092586;28;20605;-65
2023/12/28 09:38:07;;;;;;;3.03;1.40;;;17.00;59.70;;;;;;5092851;28;20174;-65
2023/12/28 09:40:33;;;;;;;3.30;1.42;;;17.00;59.70;;;;;;5091432;28;20194;-65
2023/12/28 09:43:13;;;;;;;3.28;1.38;;;17.10;59.60;;;;;;5092619;28;20273;-65
2023/12/28 09:45:39;;;;;;;4.38;1.65;;;17.00;59.60;;;;;;5075370;28;20670;-64
2023/12/28 09:48:06;;;;;;;4.07;1.75;;;17.00;59.60;;;;;;5091521;28;20205;-65
2023/12/28 09:50:32;;;;;;;1.88;1.30;;;17.00;59.70;;;;;;5057610;28;20201;-63
2023/12/28 09:52:57;;;;;;;3.08;1.70;;;16.90;59.80;;;;;;5091644;28;20231;-64
2023/12/28 09:55:24;;;;;;;2.20;1.40;;;16.90;59.90;;;;;;5092218;28;20276;-65
2023/12/28 09:57:50;;;;;;;5.82;1.92;;;16.90;59.90;;;;;;5092479;28;20173;-69
2023/12/28 10:00:16;;;;;;;5.90;1.75;;;16.90;60.20;;;;;;5073408;28;20221;-64
2023/12/28 10:02:44;;;;;;;3.78;1.52;;;16.90;60.20;;;;;;5057588;28;20644;-63
2023/12/28 10:05:13;;;;;;;5.75;2.03;;;16.90;60.20;;;;;;5092329;28;20693;-65
2023/12/28 10:07:44;;;;;;;3.75;2.13;;;16.90;60.20;;;;;;5091886;28;20182;-65
2023/12/28 10:10:10;;;;;;;8.18;2.53;;;17.00;60.30;;;;;;5091869;28;20197;-63
2023/12/28 10:12:36;;;;;;;4.22;1.65;;;16.90;60.30;;;;;;5095005;28;20250;-62
2023/12/28 10:15:04;;;;;;;4.90;1.98;;;16.90;60.10;;;;;;5111569;28;20177;-63
2023/12/28 10:17:29;;;;;;;4.68;2.10;;;16.90;60.10;;;;;;5111656;28;20226;-63
2023/12/28 10:19:55;;;;;;;4.43;2.10;;;16.80;60.10;;;;;;5111677;28;20280;-62
2023/12/28 10:22:21;;;;;;;7.93;2.00;;;16.90;60.30;;;;;;5111123;28;20264;-63
2023/12/28 10:24:46;;;;;;;5.80;1.52;;;16.80;60.30;;;;;;5093658;28;20256;-62
2023/12/28 10:27:13;;;;;;;4.28;1.63;;;16.90;60.40;;;;;;5093720;28;20601;-63
2023/12/28 10:29:39;;;;;;;5.05;1.60;;;16.90;60.50;;;;;;5092758;28;20176;-63
2023/12/28 10:32:05;;;;;;;7.20;1.83;;;16.90;60.40;;;;;;5112141;28;20173;-63
2023/12/28 10:34:31;;;;;;;9.13;1.98;;;16.90;60.40;;;;;;5112161;28;20218;-63
2023/12/28 10:36:56;;;;;;;5.22;1.83;;;17.00;60.70;;;;;;5111549;28;20260;-63
2023/12/28 10:39:22;;;;;;;4.30;1.90;;;17.00;60.40;;;;;;5093456;28;20169;-63
2023/12/28 10:41:49;;;;;;;6.65;2.05;;;17.00;60.60;;;;;;5112213;28;20254;-63
2023/12/28 10:44:17;;;;;;;7.30;1.98;;;17.00;60.80;;;;;;5111118;28;20219;-63
2023/12/28 10:46:42;;;;;;;5.90;1.80;;;17.00;60.90;;;;;;5093971;28;20208;-62
2023/12/28 10:49:12;;;;;;;5.18;1.95;;;17.00;61.00;;;;;;5092739;28;20200;-64
2023/12/28 10:51:41;;;;;;;6.38;2.13;;;16.90;60.90;;;;;;5109851;28;20239;-62
2023/12/28 10:54:37;;;;;;;8.38;2.22;;;17.00;61.10;;;;;;5110520;28;20232;-63
2023/12/28 10:57:09;;;;;;;5.18;1.85;;;16.90;61.20;;;;;;5109202;28;20184;-63
2023/12/28 10:59:43;;;;;;;5.07;2.28;;;16.90;61.20;;;;;;5113384;28;20635;-62
2023/12/28 11:02:09;;;;;;;5.78;2.00;;;16.80;61.20;;;;;;5115914;28;20204;-61
2023/12/28 11:04:41;;;;;;;4.18;1.63;;;16.70;61.00;;;;;;5095622;28;20169;-61
2023/12/28 11:07:07;;;;;;;4.18;1.73;;;16.80;61.10;;;;;;5098132;28;20179;-63
2023/12/28 11:09:33;;;;;;;5.38;1.90;;;16.80;61.10;;;;;;5097412;28;20181;-63
2023/12/28 11:12:01;;;;;;;7.03;1.98;;;16.70;61.00;;;;;;5097324;28;20169;-62
2023/12/28 11:14:27;;;;;;;4.90;2.00;;;16.80;61.10;;;;;;5097875;28;20192;-63
2023/12/28 11:16:53;;;;;;;5.90;1.73;;;16.70;60.90;;;;;;5115927;28;20165;-63
2023/12/28 11:19:18;;;;;;;8.05;2.28;;;16.70;60.90;;;;;;5095406;28;20627;-62
2023/12/28 11:21:44;;;;;;;4.18;1.88;;;16.70;60.70;;;;;;5097198;28;20659;-62
2023/12/28 11:24:09;;;;;;;6.07;1.95;;;16.70;61.00;;;;;;5115484;28;20255;-62
2023/12/28 11:26:35;;;;;;;6.53;1.95;;;16.60;60.90;;;;;;5114635;28;20341;-62
2023/12/28 11:29:02;;;;;;;6.10;1.75;;;16.60;61.00;;;;;;5097428;28;20173;-63
2023/12/28 11:31:27;;;;;;;5.97;2.10;;;16.60;60.80;;;;;;5114344;28;20207;-63
2023/12/28 11:33:53;;;;;;;7.63;2.50;;;16.60;61.00;;;;;;5115538;28;20207;-63
2023/12/28 11:36:24;;;;;;;3.95;1.60;;;16.60;61.00;;;;;;5115154;28;20246;-63
2023/12/28 11:38:53;;;;;;;4.95;1.73;;;16.60;61.70;;;;;;5096703;28;20169;-63
2023/12/28 11:41:20;;;;;;;7.45;2.05;;;16.60;60.90;;;;;;5115198;28;20217;-63
2023/12/28 11:43:51;;;;;;;5.45;1.90;;;16.50;60.90;;;;;;5115426;28;20184;-64
2023/12/28 11:46:17;;;;;;;7.03;2.03;;;16.50;60.90;;;;;;5114342;28;20180;-64
2023/12/28 11:48:42;;;;;;;7.25;2.33;;;16.60;61.80;;;;;;5115240;28;20583;-63
2023/12/28 11:51:08;;;;;;;6.95;2.17;;;16.60;61.30;;;;;;5114870;28;20689;-63
2023/12/28 11:53:35;;;;;;;5.63;2.38;;;16.50;60.90;;;;;;5113709;28;20702;-66
2023/12/28 11:56:02;;;;;;;6.50;1.88;;;16.60;61.10;;;;;;5113996;28;20179;-63
2023/12/28 11:58:27;;;;;;;4.60;1.95;;;16.50;61.00;;;;;;5113677;28;20169;-63
2023/12/28 12:00:53;;;;;;;7.25;2.40;;;16.50;60.90;;;;;;5113072;28;20288;-63
2023/12/28 12:03:19;;;;;;;4.57;1.75;;;16.50;61.10;;;;;;5113461;28;20547;-62
2023/12/28 12:05:45;;;;;;;6.43;2.00;;;16.50;61.30;;;;;;5113558;28;20161;-62
2023/12/28 12:08:13;;;;;;;8.35;2.08;;;16.50;61.30;;;;;;5113122;28;20172;-63
2023/12/28 12:10:39;;;;;;;7.15;2.20;;;16.50;61.20;;;;;;5113096;28;20188;-63
2023/12/28 12:13:05;;;;;;;7.28;2.20;;;16.50;61.30;;;;;;5113524;28;20608;-63
2023/12/28 12:15:30;;;;;;;7.30;2.25;;;16.50;61.30;;;;;;5112314;28;20193;-63
2023/12/28 12:17:56;;;;;;;5.68;2.13;;;16.50;61.40;;;;;;5078284;28;20584;-62
2023/12/28 12:20:23;;;;;;;6.63;1.90;;;16.50;61.40;;;;;;5094782;28;20211;-63
2023/12/28 12:22:49;;;;;;;7.53;2.67;;;16.40;61.20;;;;;;5112787;28;20196;-63
2023/12/28 12:25:15;;;;;;;6.68;2.45;;;16.40;61.30;;;;;;5112885;28;20234;-62
2023/12/28 12:27:41;;;;;;;6.00;2.25;;;16.40;61.30;;;;;;5112697;28;20181;-63
2023/12/28 12:30:07;;;;;;;5.40;2.10;;;16.40;61.70;;;;;;5113235;28;20184;-63
2023/12/28 12:32:33;;;;;;;6.25;1.98;;;16.40;61.10;;;;;;5094735;28;20172;-63
2023/12/28 12:34:58;;;;;;;9.20;2.65;;;16.40;61.10;;;;;;5093955;28;20183;-65
2023/12/28 12:37:24;;;;;;;8.55;2.78;;;16.40;61.00;;;;;;5112384;28;20173;-64
2023/12/28 12:39:49;;;;;;;13.00;3.47;;;16.40;61.00;;;;;;5113051;28;20189;-64
2023/12/28 12:42:16;;;;;;;9.85;2.95;;;16.40;61.20;;;;;;5111907;28;20223;-66